sensor_id;sensor_type;location;lat;lon;timestamp;temperature;humidity
44767;DHT22;30487;48.716;9.272;2023-04-04T00:01:23;4.40;80.70
44767;DHT22;30487;48.716;9.272;2023-04-04T00:03:49;4.40;80.50
44767;DHT22;30487;48.716;9.272;2023-04-04T00:06:17;4.40;80.40
44767;DHT22;30487;48.716;9.272;2023-04-04T00:08:42;4.40;80.20
44767;DHT22;30487;48.716;9.272;2023-04-04T00:11:08;4.40;80.20
44767;DHT22;30487;48.716;9.272;2023-04-04T00:13:33;4.30;80.00
44767;DHT22;30487;48.716;9.272;2023-04-04T00:15:59;4.30;79.90
44767;DHT22;30487;48.716;9.272;2023-04-04T00:18:25;4.30;79.80
44767;DHT22;30487;48.716;9.272;2023-04-04T00:20:50;4.30;80.00
44767;DHT22;30487;48.716;9.272;2023-04-04T00:23:16;4.30;80.10
44767;DHT22;30487;48.716;9.272;2023-04-04T00:25:42;4.20;80.00
44767;DHT22;30487;48.716;9.272;2023-04-04T00:28:08;4.20;80.00
44767;DHT22;30487;48.716;9.272;2023-04-04T00:30:34;4.20;79.90
44767;DHT22;30487;48.716;9.272;2023-04-04T00:33:01;4.10;79.80
44767;DHT22;30487;48.716;9.272;2023-04-04T00:35:26;4.10;79.70
44767;DHT22;30487;48.716;9.272;2023-04-04T00:37:52;4.10;79.70
44767;DHT22;30487;48.716;9.272;2023-04-04T00:40:17;4.10;79.70
44767;DHT22;30487;48.716;9.272;2023-04-04T00:42:43;4.10;79.60
44767;DHT22;30487;48.716;9.272;2023-04-04T00:45:09;4.10;79.70
44767;DHT22;30487;48.716;9.272;2023-04-04T00:47:37;4.00;79.60
44767;DHT22;30487;48.716;9.272;2023-04-04T00:50:03;4.00;79.70
44767;DHT22;30487;48.716;9.272;2023-04-04T00:52:29;4.00;79.70
44767;DHT22;30487;48.716;9.272;2023-04-04T00:54:55;4.00;79.60
44767;DHT22;30487;48.716;9.272;2023-04-04T00:57:21;4.00;79.50
44767;DHT22;30487;48.716;9.272;2023-04-04T00:59:48;3.90;79.50
44767;DHT22;30487;48.716;9.272;2023-04-04T01:02:15;3.90;79.60
44767;DHT22;30487;48.716;9.272;2023-04-04T01:04:40;3.90;79.60
44767;DHT22;30487;48.716;9.272;2023-04-04T01:07:06;3.90;80.00
44767;DHT22;30487;48.716;9.272;2023-04-04T01:09:33;3.90;79.50
44767;DHT22;30487;48.716;9.272;2023-04-04T01:11:58;3.90;79.50
44767;DHT22;30487;48.716;9.272;2023-04-04T01:14:24;3.80;79.50
44767;DHT22;30487;48.716;9.272;2023-04-04T01:16:50;3.80;79.40
44767;DHT22;30487;48.716;9.272;2023-04-04T01:19:37;3.80;79.50
44767;DHT22;30487;48.716;9.272;2023-04-04T01:22:08;3.80;79.40
44767;DHT22;30487;48.716;9.272;2023-04-04T01:24:36;3.80;79.50
44767;DHT22;30487;48.716;9.272;2023-04-04T01:27:03;3.70;79.40
44767;DHT22;30487;48.716;9.272;2023-04-04T01:29:29;3.80;79.50
44767;DHT22;30487;48.716;9.272;2023-04-04T01:32:09;3.70;79.40
44767;DHT22;30487;48.716;9.272;2023-04-04T01:37:53;3.70;79.60
44767;DHT22;30487;48.716;9.272;2023-04-04T01:40:24;3.70;79.70
44767;DHT22;30487;48.716;9.272;2023-04-04T01:42:51;3.70;79.70
44767;DHT22;30487;48.716;9.272;2023-04-04T01:45:17;3.60;79.60
44767;DHT22;30487;48.716;9.272;2023-04-04T01:47:43;3.70;79.70
44767;DHT22;30487;48.716;9.272;2023-04-04T01:50:10;3.60;79.70
44767;DHT22;30487;48.716;9.272;2023-04-04T01:52:36;3.60;79.90
44767;DHT22;30487;48.716;9.272;2023-04-04T01:55:02;3.60;79.90
44767;DHT22;30487;48.716;9.272;2023-04-04T01:57:29;3.60;80.00
44767;DHT22;30487;48.716;9.272;2023-04-04T01:59:54;3.60;80.00
44767;DHT22;30487;48.716;9.272;2023-04-04T02:02:20;3.60;80.00
44767;DHT22;30487;48.716;9.272;2023-04-04T02:04:46;3.60;80.20
44767;DHT22;30487;48.716;9.272;2023-04-04T02:07:12;3.50;80.20
44767;DHT22;30487;48.716;9.272;2023-04-04T02:09:38;3.50;80.30
44767;DHT22;30487;48.716;9.272;2023-04-04T02:12:04;3.50;80.30
44767;DHT22;30487;48.716;9.272;2023-04-04T02:14:30;3.50;80.30
44767;DHT22;30487;48.716;9.272;2023-04-04T02:16:55;3.40;80.40
44767;DHT22;30487;48.716;9.272;2023-04-04T02:19:21;3.50;80.50
44767;DHT22;30487;48.716;9.272;2023-04-04T02:21:46;3.40;80.50
44767;DHT22;30487;48.716;9.272;2023-04-04T02:24:12;3.40;80.60
44767;DHT22;30487;48.716;9.272;2023-04-04T02:26:38;3.40;80.70
44767;DHT22;30487;48.716;9.272;2023-04-04T02:29:03;3.40;81.50
44767;DHT22;30487;48.716;9.272;2023-04-04T02:31:29;3.40;81.00
44767;DHT22;30487;48.716;9.272;2023-04-04T02:33:55;3.30;81.00
44767;DHT22;30487;48.716;9.272;2023-04-04T02:36:20;3.30;81.10
44767;DHT22;30487;48.716;9.272;2023-04-04T02:38:46;3.30;81.20
44767;DHT22;30487;48.716;9.272;2023-04-04T02:41:12;3.30;81.40
44767;DHT22;30487;48.716;9.272;2023-04-04T02:43:37;3.30;81.30
44767;DHT22;30487;48.716;9.272;2023-04-04T02:46:03;3.30;81.30
44767;DHT22;30487;48.716;9.272;2023-04-04T02:48:28;3.30;81.40
44767;DHT22;30487;48.716;9.272;2023-04-04T02:50:54;3.30;81.40
44767;DHT22;30487;48.716;9.272;2023-04-04T02:53:20;3.30;81.50
44767;DHT22;30487;48.716;9.272;2023-04-04T02:55:45;3.20;81.60
44767;DHT22;30487;48.716;9.272;2023-04-04T02:58:11;3.20;81.60
44767;DHT22;30487;48.716;9.272;2023-04-04T03:00:37;3.20;81.90
44767;DHT22;30487;48.716;9.272;2023-04-04T03:03:03;3.20;82.00
44767;DHT22;30487;48.716;9.272;2023-04-04T03:05:29;3.20;82.00
44767;DHT22;30487;48.716;9.272;2023-04-04T03:07:57;3.20;82.20
44767;DHT22;30487;48.716;9.272;2023-04-04T03:10:23;3.20;82.20
44767;DHT22;30487;48.716;9.272;2023-04-04T03:12:49;3.10;82.30
44767;DHT22;30487;48.716;9.272;2023-04-04T03:15:15;3.10;82.50
44767;DHT22;30487;48.716;9.272;2023-04-04T03:17:41;3.10;82.50
44767;DHT22;30487;48.716;9.272;2023-04-04T03:20:07;3.10;82.60
44767;DHT22;30487;48.716;9.272;2023-04-04T03:22:33;3.10;82.80
44767;DHT22;30487;48.716;9.272;2023-04-04T03:24:59;3.10;82.70
44767;DHT22;30487;48.716;9.272;2023-04-04T03:27:24;3.00;82.70
44767;DHT22;30487;48.716;9.272;2023-04-04T03:29:50;3.00;82.70
44767;DHT22;30487;48.716;9.272;2023-04-04T03:32:15;3.00;82.80
44767;DHT22;30487;48.716;9.272;2023-04-04T03:34:42;3.00;82.90
44767;DHT22;30487;48.716;9.272;2023-04-04T03:37:09;3.00;82.90
44767;DHT22;30487;48.716;9.272;2023-04-04T03:39:34;3.00;83.00
44767;DHT22;30487;48.716;9.272;2023-04-04T03:42:00;2.90;83.00
44767;DHT22;30487;48.716;9.272;2023-04-04T03:44:25;2.90;83.00
44767;DHT22;30487;48.716;9.272;2023-04-04T03:46:51;2.90;83.10
44767;DHT22;30487;48.716;9.272;2023-04-04T03:49:17;2.90;83.20
44767;DHT22;30487;48.716;9.272;2023-04-04T03:51:42;2.90;83.70
44767;DHT22;30487;48.716;9.272;2023-04-04T03:54:08;2.90;83.20
44767;DHT22;30487;48.716;9.272;2023-04-04T03:56:33;2.90;83.20
44767;DHT22;30487;48.716;9.272;2023-04-04T03:59:00;2.90;83.30
44767;DHT22;30487;48.716;9.272;2023-04-04T04:01:25;2.80;83.20
44767;DHT22;30487;48.716;9.272;2023-04-04T04:03:51;2.80;83.30
44767;DHT22;30487;48.716;9.272;2023-04-04T04:06:17;2.80;83.30
44767;DHT22;30487;48.716;9.272;2023-04-04T04:08:42;2.80;83.50
44767;DHT22;30487;48.716;9.272;2023-04-04T04:11:08;2.80;83.40
44767;DHT22;30487;48.716;9.272;2023-04-04T04:13:36;2.80;83.50
44767;DHT22;30487;48.716;9.272;2023-04-04T04:16:03;2.80;83.50
44767;DHT22;30487;48.716;9.272;2023-04-04T04:18:29;2.80;83.60
44767;DHT22;30487;48.716;9.272;2023-04-04T04:20:58;2.70;83.50
44767;DHT22;30487;48.716;9.272;2023-04-04T04:23:24;2.70;83.60
44767;DHT22;30487;48.716;9.272;2023-04-04T04:25:50;2.70;83.70
44767;DHT22;30487;48.716;9.272;2023-04-04T04:28:16;2.70;83.70
44767;DHT22;30487;48.716;9.272;2023-04-04T04:30:41;2.70;83.80
44767;DHT22;30487;48.716;9.272;2023-04-04T04:33:07;2.60;83.80
44767;DHT22;30487;48.716;9.272;2023-04-04T04:35:35;2.70;83.80
44767;DHT22;30487;48.716;9.272;2023-04-04T04:38:05;2.60;83.70
44767;DHT22;30487;48.716;9.272;2023-04-04T04:40:34;2.60;83.70
44767;DHT22;30487;48.716;9.272;2023-04-04T04:43:00;2.70;83.60
44767;DHT22;30487;48.716;9.272;2023-04-04T04:45:25;2.70;83.50
44767;DHT22;30487;48.716;9.272;2023-04-04T04:47:51;2.70;83.60
44767;DHT22;30487;48.716;9.272;2023-04-04T04:50:17;2.70;83.60
44767;DHT22;30487;48.716;9.272;2023-04-04T04:52:43;2.70;83.40
44767;DHT22;30487;48.716;9.272;2023-04-04T04:55:09;2.70;83.50
44767;DHT22;30487;48.716;9.272;2023-04-04T04:57:38;2.70;83.50
44767;DHT22;30487;48.716;9.272;2023-04-04T05:00:05;2.70;83.40
44767;DHT22;30487;48.716;9.272;2023-04-04T05:02:30;2.70;83.40
44767;DHT22;30487;48.716;9.272;2023-04-04T05:04:56;2.70;83.40
44767;DHT22;30487;48.716;9.272;2023-04-04T05:07:22;2.70;83.30
44767;DHT22;30487;48.716;9.272;2023-04-04T05:09:49;2.70;83.20
44767;DHT22;30487;48.716;9.272;2023-04-04T05:12:15;2.70;83.20
44767;DHT22;30487;48.716;9.272;2023-04-04T05:14:41;2.70;83.20
44767;DHT22;30487;48.716;9.272;2023-04-04T05:17:06;2.70;83.30
44767;DHT22;30487;48.716;9.272;2023-04-04T05:19:32;2.70;83.30
44767;DHT22;30487;48.716;9.272;2023-04-04T05:21:58;2.70;83.20
44767;DHT22;30487;48.716;9.272;2023-04-04T05:24:23;2.80;83.20
44767;DHT22;30487;48.716;9.272;2023-04-04T05:26:49;2.80;83.10
44767;DHT22;30487;48.716;9.272;2023-04-04T05:29:15;2.80;83.00
44767;DHT22;30487;48.716;9.272;2023-04-04T05:31:40;2.80;83.00
44767;DHT22;30487;48.716;9.272;2023-04-04T05:34:06;2.90;83.10
44767;DHT22;30487;48.716;9.272;2023-04-04T05:36:35;2.90;83.00
44767;DHT22;30487;48.716;9.272;2023-04-04T05:39:02;3.00;82.90
44767;DHT22;30487;48.716;9.272;2023-04-04T05:41:29;3.00;82.80
44767;DHT22;30487;48.716;9.272;2023-04-04T05:43:55;3.10;82.70
44767;DHT22;30487;48.716;9.272;2023-04-04T05:46:21;3.10;82.70
44767;DHT22;30487;48.716;9.272;2023-04-04T05:48:47;3.20;82.70
44767;DHT22;30487;48.716;9.272;2023-04-04T05:51:12;3.30;82.60
44767;DHT22;30487;48.716;9.272;2023-04-04T05:53:38;3.30;83.10
44767;DHT22;30487;48.716;9.272;2023-04-04T05:56:04;3.40;82.50
44767;DHT22;30487;48.716;9.272;2023-04-04T05:58:29;3.40;82.40
44767;DHT22;30487;48.716;9.272;2023-04-04T06:00:55;3.50;82.70
44767;DHT22;30487;48.716;9.272;2023-04-04T06:03:20;3.60;83.70
44767;DHT22;30487;48.716;9.272;2023-04-04T06:05:52;3.70;85.30
44767;DHT22;30487;48.716;9.272;2023-04-04T06:08:18;3.80;86.00
44767;DHT22;30487;48.716;9.272;2023-04-04T06:10:44;4.00;85.60
44767;DHT22;30487;48.716;9.272;2023-04-04T06:13:09;4.10;84.60
44767;DHT22;30487;48.716;9.272;2023-04-04T06:15:35;4.20;86.70
44767;DHT22;30487;48.716;9.272;2023-04-04T06:18:01;4.30;86.10
44767;DHT22;30487;48.716;9.272;2023-04-04T06:20:26;4.50;85.00
44767;DHT22;30487;48.716;9.272;2023-04-04T06:22:52;4.60;83.00
44767;DHT22;30487;48.716;9.272;2023-04-04T06:25:18;4.60;82.20
44767;DHT22;30487;48.716;9.272;2023-04-04T06:27:44;4.70;81.20
44767;DHT22;30487;48.716;9.272;2023-04-04T06:30:10;4.90;81.10
44767;DHT22;30487;48.716;9.272;2023-04-04T06:32:35;5.00;80.40
44767;DHT22;30487;48.716;9.272;2023-04-04T06:35:01;5.10;78.60
44767;DHT22;30487;48.716;9.272;2023-04-04T06:37:28;5.20;78.90
44767;DHT22;30487;48.716;9.272;2023-04-04T06:39:54;5.30;78.60
44767;DHT22;30487;48.716;9.272;2023-04-04T06:42:20;5.40;77.80
44767;DHT22;30487;48.716;9.272;2023-04-04T06:44:45;5.50;78.10
44767;DHT22;30487;48.716;9.272;2023-04-04T06:47:11;5.70;78.00
44767;DHT22;30487;48.716;9.272;2023-04-04T06:49:37;5.90;78.00
44767;DHT22;30487;48.716;9.272;2023-04-04T06:52:03;5.90;77.70
44767;DHT22;30487;48.716;9.272;2023-04-04T06:54:29;6.10;77.30
44767;DHT22;30487;48.716;9.272;2023-04-04T06:56:55;6.20;77.50
44767;DHT22;30487;48.716;9.272;2023-04-04T06:59:20;6.30;76.80
44767;DHT22;30487;48.716;9.272;2023-04-04T07:01:46;6.50;76.40
44767;DHT22;30487;48.716;9.272;2023-04-04T07:04:12;6.60;75.90
44767;DHT22;30487;48.716;9.272;2023-04-04T07:06:37;6.80;75.30
44767;DHT22;30487;48.716;9.272;2023-04-04T07:09:03;6.80;74.90
44767;DHT22;30487;48.716;9.272;2023-04-04T07:11:31;7.00;75.60
44767;DHT22;30487;48.716;9.272;2023-04-04T07:13:57;7.10;74.80
44767;DHT22;30487;48.716;9.272;2023-04-04T07:16:23;7.20;74.90
44767;DHT22;30487;48.716;9.272;2023-04-04T07:18:48;7.30;74.00
44767;DHT22;30487;48.716;9.272;2023-04-04T07:21:14;7.50;74.90
44767;DHT22;30487;48.716;9.272;2023-04-04T07:23:41;7.60;75.50
44767;DHT22;30487;48.716;9.272;2023-04-04T07:26:07;7.80;74.40
44767;DHT22;30487;48.716;9.272;2023-04-04T07:28:32;8.00;74.00
44767;DHT22;30487;48.716;9.272;2023-04-04T07:30:59;8.10;74.00
44767;DHT22;30487;48.716;9.272;2023-04-04T07:33:26;8.30;73.70
44767;DHT22;30487;48.716;9.272;2023-04-04T07:35:52;8.40;73.20
44767;DHT22;30487;48.716;9.272;2023-04-04T07:38:18;8.60;73.00
44767;DHT22;30487;48.716;9.272;2023-04-04T07:40:43;8.80;72.30
44767;DHT22;30487;48.716;9.272;2023-04-04T07:43:09;8.90;72.20
44767;DHT22;30487;48.716;9.272;2023-04-04T07:45:35;9.00;72.40
44767;DHT22;30487;48.716;9.272;2023-04-04T07:48:01;9.20;72.40
44767;DHT22;30487;48.716;9.272;2023-04-04T07:50:27;9.30;72.30
44767;DHT22;30487;48.716;9.272;2023-04-04T07:52:52;9.60;72.50
44767;DHT22;30487;48.716;9.272;2023-04-04T07:55:23;9.70;70.20
44767;DHT22;30487;48.716;9.272;2023-04-04T07:57:52;9.90;69.50
44767;DHT22;30487;48.716;9.272;2023-04-04T08:00:19;10.10;68.90
44767;DHT22;30487;48.716;9.272;2023-04-04T08:02:53;10.20;68.50
44767;DHT22;30487;48.716;9.272;2023-04-04T08:05:19;10.40;68.10
44767;DHT22;30487;48.716;9.272;2023-04-04T08:07:44;10.40;66.60
44767;DHT22;30487;48.716;9.272;2023-04-04T08:10:10;10.60;66.70
44767;DHT22;30487;48.716;9.272;2023-04-04T08:12:36;10.70;66.30
44767;DHT22;30487;48.716;9.272;2023-04-04T08:15:02;10.90;66.10
44767;DHT22;30487;48.716;9.272;2023-04-04T08:17:28;11.00;66.60
44767;DHT22;30487;48.716;9.272;2023-04-04T08:19:53;11.20;66.10
44767;DHT22;30487;48.716;9.272;2023-04-04T08:22:19;11.40;64.80
44767;DHT22;30487;48.716;9.272;2023-04-04T08:24:45;11.50;65.10
44767;DHT22;30487;48.716;9.272;2023-04-04T08:27:11;11.70;64.00
44767;DHT22;30487;48.716;9.272;2023-04-04T08:29:37;11.80;63.80
44767;DHT22;30487;48.716;9.272;2023-04-04T08:32:03;12.00;64.60
44767;DHT22;30487;48.716;9.272;2023-04-04T08:34:29;12.10;65.30
44767;DHT22;30487;48.716;9.272;2023-04-04T08:36:55;12.40;64.00
44767;DHT22;30487;48.716;9.272;2023-04-04T08:39:21;12.60;62.30
44767;DHT22;30487;48.716;9.272;2023-04-04T08:41:47;12.80;61.20
44767;DHT22;30487;48.716;9.272;2023-04-04T08:44:16;12.90;60.80
44767;DHT22;30487;48.716;9.272;2023-04-04T08:46:46;13.00;60.60
44767;DHT22;30487;48.716;9.272;2023-04-04T08:49:15;13.00;61.10
44767;DHT22;30487;48.716;9.272;2023-04-04T08:51:42;13.10;59.50
44767;DHT22;30487;48.716;9.272;2023-04-04T08:54:09;13.30;60.70
44767;DHT22;30487;48.716;9.272;2023-04-04T08:56:34;13.40;60.10
44767;DHT22;30487;48.716;9.272;2023-04-04T08:59:00;13.50;59.10
44767;DHT22;30487;48.716;9.272;2023-04-04T09:01:27;13.70;58.80
44767;DHT22;30487;48.716;9.272;2023-04-04T09:03:55;13.90;58.40
44767;DHT22;30487;48.716;9.272;2023-04-04T09:06:22;14.00;57.90
44767;DHT22;30487;48.716;9.272;2023-04-04T09:08:48;14.00;59.10
44767;DHT22;30487;48.716;9.272;2023-04-04T09:11:16;14.20;57.80
44767;DHT22;30487;48.716;9.272;2023-04-04T09:13:44;14.40;56.70
44767;DHT22;30487;48.716;9.272;2023-04-04T09:16:09;14.60;55.90
44767;DHT22;30487;48.716;9.272;2023-04-04T09:18:35;14.80;56.20
44767;DHT22;30487;48.716;9.272;2023-04-04T09:21:08;15.00;55.50
44767;DHT22;30487;48.716;9.272;2023-04-04T09:23:34;15.30;55.50
44767;DHT22;30487;48.716;9.272;2023-04-04T09:25:59;15.40;55.40
44767;DHT22;30487;48.716;9.272;2023-04-04T09:28:25;15.60;54.60
44767;DHT22;30487;48.716;9.272;2023-04-04T09:30:52;15.60;54.20
44767;DHT22;30487;48.716;9.272;2023-04-04T09:33:19;15.30;52.70
44767;DHT22;30487;48.716;9.272;2023-04-04T09:35:50;15.10;52.90
44767;DHT22;30487;48.716;9.272;2023-04-04T09:38:22;15.30;53.50
44767;DHT22;30487;48.716;9.272;2023-04-04T09:40:47;15.50;53.50
44767;DHT22;30487;48.716;9.272;2023-04-04T09:43:14;15.80;53.10
44767;DHT22;30487;48.716;9.272;2023-04-04T09:45:43;16.00;53.70
44767;DHT22;30487;48.716;9.272;2023-04-04T09:48:09;16.20;52.90
44767;DHT22;30487;48.716;9.272;2023-04-04T09:50:36;16.50;52.60
44767;DHT22;30487;48.716;9.272;2023-04-04T09:53:02;16.70;52.20
44767;DHT22;30487;48.716;9.272;2023-04-04T09:55:35;16.90;52.70
44767;DHT22;30487;48.716;9.272;2023-04-04T09:58:25;16.90;53.50
44767;DHT22;30487;48.716;9.272;2023-04-04T10:00:57;17.30;51.60
44767;DHT22;30487;48.716;9.272;2023-04-04T10:03:24;17.30;49.50
44767;DHT22;30487;48.716;9.272;2023-04-04T10:06:02;17.20;51.20
44767;DHT22;30487;48.716;9.272;2023-04-04T10:08:31;17.10;51.30
44767;DHT22;30487;48.716;9.272;2023-04-04T10:10:59;17.20;52.30
44767;DHT22;30487;48.716;9.272;2023-04-04T10:13:27;17.00;52.30
44767;DHT22;30487;48.716;9.272;2023-04-04T10:15:59;17.10;52.20
44767;DHT22;30487;48.716;9.272;2023-04-04T10:18:27;17.40;51.80
44767;DHT22;30487;48.716;9.272;2023-04-04T10:20:55;17.70;50.70
44767;DHT22;30487;48.716;9.272;2023-04-04T10:23:22;17.90;53.30
44767;DHT22;30487;48.716;9.272;2023-04-04T10:25:50;17.80;51.60
44767;DHT22;30487;48.716;9.272;2023-04-04T10:28:16;17.60;52.80
44767;DHT22;30487;48.716;9.272;2023-04-04T10:30:48;17.90;51.60
44767;DHT22;30487;48.716;9.272;2023-04-04T10:33:22;17.90;51.20
44767;DHT22;30487;48.716;9.272;2023-04-04T10:35:53;18.10;51.60
44767;DHT22;30487;48.716;9.272;2023-04-04T10:38:27;18.20;51.00
44767;DHT22;30487;48.716;9.272;2023-04-04T10:40:55;18.60;50.90
44767;DHT22;30487;48.716;9.272;2023-04-04T10:43:24;18.70;50.30
44767;DHT22;30487;48.716;9.272;2023-04-04T10:45:51;18.60;49.60
44767;DHT22;30487;48.716;9.272;2023-04-04T10:48:17;18.70;49.70
44767;DHT22;30487;48.716;9.272;2023-04-04T10:50:44;18.80;49.70
44767;DHT22;30487;48.716;9.272;2023-04-04T10:53:10;18.90;49.10
44767;DHT22;30487;48.716;9.272;2023-04-04T10:55:36;19.10;48.50
44767;DHT22;30487;48.716;9.272;2023-04-04T10:58:05;19.10;49.70
44767;DHT22;30487;48.716;9.272;2023-04-04T11:00:32;19.20;49.60
44767;DHT22;30487;48.716;9.272;2023-04-04T11:03:13;19.50;49.00
44767;DHT22;30487;48.716;9.272;2023-04-04T11:05:39;19.30;47.80
44767;DHT22;30487;48.716;9.272;2023-04-04T11:08:07;19.20;48.00
44767;DHT22;30487;48.716;9.272;2023-04-04T11:10:37;19.50;47.50
44767;DHT22;30487;48.716;9.272;2023-04-04T11:13:15;19.70;46.20
44767;DHT22;30487;48.716;9.272;2023-04-04T11:21:18;20.30;45.40
44767;DHT22;30487;48.716;9.272;2023-04-04T11:26:33;20.60;47.10
44767;DHT22;30487;48.716;9.272;2023-04-04T11:29:00;20.60;46.00
44767;DHT22;30487;48.716;9.272;2023-04-04T11:31:47;20.70;45.70
44767;DHT22;30487;48.716;9.272;2023-04-04T11:34:14;20.90;45.70
44767;DHT22;30487;48.716;9.272;2023-04-04T11:41:56;21.40;45.30
44767;DHT22;30487;48.716;9.272;2023-04-04T11:44:23;21.70;44.70
44767;DHT22;30487;48.716;9.272;2023-04-04T11:47:01;21.80;45.10
44767;DHT22;30487;48.716;9.272;2023-04-04T11:49:29;22.10;44.40
44767;DHT22;30487;48.716;9.272;2023-04-04T11:51:56;22.30;42.70
44767;DHT22;30487;48.716;9.272;2023-04-04T11:54:23;22.40;42.60
44767;DHT22;30487;48.716;9.272;2023-04-04T11:56:49;22.30;43.20
44767;DHT22;30487;48.716;9.272;2023-04-04T11:59:19;22.40;43.60
44767;DHT22;30487;48.716;9.272;2023-04-04T12:01:45;22.50;43.70
44767;DHT22;30487;48.716;9.272;2023-04-04T12:04:13;22.50;41.60
44767;DHT22;30487;48.716;9.272;2023-04-04T12:06:39;22.50;42.00
44767;DHT22;30487;48.716;9.272;2023-04-04T12:09:05;22.60;42.00
44767;DHT22;30487;48.716;9.272;2023-04-04T12:11:35;22.70;41.90
44767;DHT22;30487;48.716;9.272;2023-04-04T12:14:01;23.00;42.20
44767;DHT22;30487;48.716;9.272;2023-04-04T12:16:27;23.20;42.90
44767;DHT22;30487;48.716;9.272;2023-04-04T12:18:53;23.50;42.00
44767;DHT22;30487;48.716;9.272;2023-04-04T12:21:19;23.80;41.10
44767;DHT22;30487;48.716;9.272;2023-04-04T12:23:47;23.80;41.00
44767;DHT22;30487;48.716;9.272;2023-04-04T12:26:15;24.00;40.50
44767;DHT22;30487;48.716;9.272;2023-04-04T12:28:41;24.10;41.00
44767;DHT22;30487;48.716;9.272;2023-04-04T12:31:11;24.20;40.60
44767;DHT22;30487;48.716;9.272;2023-04-04T12:33:39;24.30;40.90
44767;DHT22;30487;48.716;9.272;2023-04-04T12:36:05;24.60;40.40
44767;DHT22;30487;48.716;9.272;2023-04-04T12:38:32;24.70;40.20
44767;DHT22;30487;48.716;9.272;2023-04-04T12:40:58;24.90;39.80
44767;DHT22;30487;48.716;9.272;2023-04-04T12:43:27;24.90;39.30
44767;DHT22;30487;48.716;9.272;2023-04-04T12:45:58;25.00;39.20
44767;DHT22;30487;48.716;9.272;2023-04-04T12:48:27;25.00;38.40
44767;DHT22;30487;48.716;9.272;2023-04-04T12:50:57;24.90;37.80
44767;DHT22;30487;48.716;9.272;2023-04-04T12:53:28;24.80;38.30
44767;DHT22;30487;48.716;9.272;2023-04-04T12:55:58;24.80;38.40
44767;DHT22;30487;48.716;9.272;2023-04-04T12:58:24;24.80;38.00
44767;DHT22;30487;48.716;9.272;2023-04-04T13:00:52;24.60;38.50
44767;DHT22;30487;48.716;9.272;2023-04-04T13:03:21;24.60;38.90
44767;DHT22;30487;48.716;9.272;2023-04-04T13:05:47;24.70;38.90
44767;DHT22;30487;48.716;9.272;2023-04-04T13:08:14;24.90;38.80
44767;DHT22;30487;48.716;9.272;2023-04-04T13:15:59;25.00;37.80
44767;DHT22;30487;48.716;9.272;2023-04-04T13:18:31;25.00;37.80
44767;DHT22;30487;48.716;9.272;2023-04-04T13:20:57;24.90;37.30
44767;DHT22;30487;48.716;9.272;2023-04-04T13:23:23;24.90;37.30
44767;DHT22;30487;48.716;9.272;2023-04-04T13:25:49;24.70;37.50
44767;DHT22;30487;48.716;9.272;2023-04-04T13:28:14;24.60;37.50
44767;DHT22;30487;48.716;9.272;2023-04-04T13:30:40;24.60;37.60
44767;DHT22;30487;48.716;9.272;2023-04-04T13:33:08;24.60;37.30
44767;DHT22;30487;48.716;9.272;2023-04-04T13:35:34;24.40;37.40
44767;DHT22;30487;48.716;9.272;2023-04-04T13:38:00;24.50;37.40
44767;DHT22;30487;48.716;9.272;2023-04-04T13:40:26;24.60;37.20
44767;DHT22;30487;48.716;9.272;2023-04-04T13:42:52;24.50;36.80
44767;DHT22;30487;48.716;9.272;2023-04-04T13:45:18;24.40;37.00
44767;DHT22;30487;48.716;9.272;2023-04-04T13:47:44;24.20;36.90
44767;DHT22;30487;48.716;9.272;2023-04-04T13:50:10;24.00;37.00
44767;DHT22;30487;48.716;9.272;2023-04-04T13:52:35;24.00;37.20
44767;DHT22;30487;48.716;9.272;2023-04-04T13:55:02;23.80;37.50
44767;DHT22;30487;48.716;9.272;2023-04-04T13:57:28;23.70;37.60
44767;DHT22;30487;48.716;9.272;2023-04-04T13:59:53;23.50;37.30
44767;DHT22;30487;48.716;9.272;2023-04-04T14:02:21;23.30;38.20
44767;DHT22;30487;48.716;9.272;2023-04-04T14:04:47;23.20;37.60
44767;DHT22;30487;48.716;9.272;2023-04-04T14:07:12;23.00;38.00
44767;DHT22;30487;48.716;9.272;2023-04-04T14:09:38;22.80;36.80
44767;DHT22;30487;48.716;9.272;2023-04-04T14:12:04;22.60;37.50
44767;DHT22;30487;48.716;9.272;2023-04-04T14:14:29;22.50;37.70
44767;DHT22;30487;48.716;9.272;2023-04-04T14:16:55;22.20;38.00
44767;DHT22;30487;48.716;9.272;2023-04-04T14:19:21;22.20;38.10
44767;DHT22;30487;48.716;9.272;2023-04-04T14:21:47;22.20;37.90
44767;DHT22;30487;48.716;9.272;2023-04-04T14:24:13;22.00;38.00
44767;DHT22;30487;48.716;9.272;2023-04-04T14:26:39;21.70;38.10
44767;DHT22;30487;48.716;9.272;2023-04-04T14:29:04;21.70;38.30
44767;DHT22;30487;48.716;9.272;2023-04-04T14:31:30;21.60;37.90
44767;DHT22;30487;48.716;9.272;2023-04-04T14:33:57;21.50;38.70
44767;DHT22;30487;48.716;9.272;2023-04-04T14:36:23;21.20;39.30
44767;DHT22;30487;48.716;9.272;2023-04-04T14:38:49;21.20;39.60
44767;DHT22;30487;48.716;9.272;2023-04-04T14:41:15;21.10;39.50
44767;DHT22;30487;48.716;9.272;2023-04-04T14:43:41;21.00;39.70
44767;DHT22;30487;48.716;9.272;2023-04-04T14:46:07;21.00;39.80
44767;DHT22;30487;48.716;9.272;2023-04-04T14:48:32;20.90;39.70
44767;DHT22;30487;48.716;9.272;2023-04-04T14:50:59;21.00;40.00
44767;DHT22;30487;48.716;9.272;2023-04-04T14:53:25;20.90;40.20
44767;DHT22;30487;48.716;9.272;2023-04-04T14:55:50;20.70;39.60
44767;DHT22;30487;48.716;9.272;2023-04-04T14:58:17;20.40;39.90
44767;DHT22;30487;48.716;9.272;2023-04-04T15:00:43;20.00;40.70
44767;DHT22;30487;48.716;9.272;2023-04-04T15:03:10;19.80;40.50
44767;DHT22;30487;48.716;9.272;2023-04-04T15:05:36;19.70;40.80
44767;DHT22;30487;48.716;9.272;2023-04-04T15:08:01;19.70;41.40
44767;DHT22;30487;48.716;9.272;2023-04-04T15:10:27;19.70;41.60
44767;DHT22;30487;48.716;9.272;2023-04-04T15:12:53;19.60;40.90
44767;DHT22;30487;48.716;9.272;2023-04-04T15:15:18;19.50;41.00
44767;DHT22;30487;48.716;9.272;2023-04-04T15:17:44;19.40;41.10
44767;DHT22;30487;48.716;9.272;2023-04-04T15:20:10;19.30;41.50
44767;DHT22;30487;48.716;9.272;2023-04-04T15:22:36;19.20;41.80
44767;DHT22;30487;48.716;9.272;2023-04-04T15:25:03;19.20;41.70
44767;DHT22;30487;48.716;9.272;2023-04-04T15:27:29;19.10;41.50
44767;DHT22;30487;48.716;9.272;2023-04-04T15:29:55;18.90;41.80
44767;DHT22;30487;48.716;9.272;2023-04-04T15:32:20;18.90;41.90
44767;DHT22;30487;48.716;9.272;2023-04-04T15:34:46;18.80;41.80
44767;DHT22;30487;48.716;9.272;2023-04-04T15:37:11;18.60;41.50
44767;DHT22;30487;48.716;9.272;2023-04-04T15:39:37;18.50;41.80
44767;DHT22;30487;48.716;9.272;2023-04-04T15:42:03;18.40;42.10
44767;DHT22;30487;48.716;9.272;2023-04-04T15:44:28;18.20;42.60
44767;DHT22;30487;48.716;9.272;2023-04-04T15:46:54;18.20;42.50
44767;DHT22;30487;48.716;9.272;2023-04-04T15:49:19;18.10;42.80
44767;DHT22;30487;48.716;9.272;2023-04-04T15:51:45;18.00;43.00
44767;DHT22;30487;48.716;9.272;2023-04-04T15:54:11;18.00;42.30
44767;DHT22;30487;48.716;9.272;2023-04-04T15:56:36;17.80;42.00